createdAt,value
2018-07-19T00:00:03.431Z,15.01
2018-07-19T00:01:03.379Z,15.02
2018-07-19T00:02:03.327Z,15.09
2018-07-19T00:03:03.276Z,15.02
2018-07-19T00:04:03.223Z,15.09
2018-07-19T00:05:03.174Z,15.13
2018-07-19T00:06:03.123Z,15.08
2018-07-19T00:07:03.069Z,15.13
2018-07-19T00:08:03.023Z,15.19
2018-07-19T00:09:02.965Z,15.20
2018-07-19T00:10:02.912Z,15.12
2018-07-19T00:11:02.863Z,15.11
2018-07-19T00:12:02.810Z,15.23
2018-07-19T00:13:02.757Z,15.24
2018-07-19T00:14:02.707Z,15.15
2018-07-19T00:15:02.652Z,14.93
2018-07-19T00:16:02.600Z,14.81
2018-07-19T00:17:02.549Z,14.91
2018-07-19T00:18:02.497Z,14.78
2018-07-19T00:19:02.479Z,14.80
2018-07-19T00:20:02.394Z,14.72
2018-07-19T00:21:02.351Z,14.69
2018-07-19T00:22:02.288Z,14.71
2018-07-19T00:23:02.240Z,14.67
2018-07-19T00:24:02.184Z,14.69
2018-07-19T00:25:02.136Z,14.72
2018-07-19T00:26:02.081Z,14.75
2018-07-19T00:27:02.028Z,14.75
2018-07-19T00:28:01.977Z,14.83
2018-07-19T00:29:01.927Z,14.72
2018-07-19T00:30:01.872Z,14.62
2018-07-19T00:31:01.820Z,14.53
2018-07-19T00:32:01.770Z,14.39
2018-07-19T00:33:01.716Z,14.46
2018-07-19T00:34:01.708Z,14.32
2018-07-19T00:35:01.611Z,14.31
2018-07-19T00:36:01.560Z,14.31
2018-07-19T00:37:01.507Z,14.34
2018-07-19T00:38:01.457Z,14.27
2018-07-19T00:39:01.401Z,14.21
2018-07-19T00:40:01.352Z,14.24
2018-07-19T00:41:01.298Z,14.24
2018-07-19T00:42:01.247Z,14.25
2018-07-19T00:43:01.192Z,14.31
2018-07-19T00:44:01.140Z,14.27
2018-07-19T00:45:01.088Z,14.27
2018-07-19T00:46:01.035Z,14.27
2018-07-19T00:47:00.983Z,14.28
2018-07-19T00:48:00.934Z,14.42
2018-07-19T00:49:00.938Z,14.44
2018-07-19T00:50:00.824Z,14.47
2018-07-19T00:51:00.776Z,14.49
2018-07-19T00:52:00.723Z,14.49
2018-07-19T00:53:00.674Z,14.46
2018-07-19T00:54:00.615Z,14.47
2018-07-19T00:55:00.565Z,14.34
2018-07-19T00:56:00.514Z,14.29
2018-07-19T00:57:00.461Z,14.42
2018-07-19T00:58:00.491Z,14.38
2018-07-19T00:59:00.354Z,14.34
2018-07-19T01:00:00.300Z,14.32
2018-07-19T01:01:00.249Z,14.21
2018-07-19T01:02:00.197Z,14.27
2018-07-19T01:03:00.143Z,14.20
2018-07-19T01:04:00.091Z,14.14
2018-07-19T01:05:00.041Z,14.14
2018-07-19T01:05:59.987Z,14.14
2018-07-19T01:06:59.933Z,14.09
2018-07-19T01:07:59.887Z,13.98
2018-07-19T01:08:59.828Z,14.02
2018-07-19T01:09:59.776Z,14.09
2018-07-19T01:10:59.724Z,13.98
2018-07-19T01:11:59.670Z,14.01
2018-07-19T01:12:59.618Z,14.01
2018-07-19T01:13:59.564Z,14.04
2018-07-19T01:14:59.512Z,13.98
2018-07-19T01:15:59.461Z,14.06
2018-07-19T01:16:59.408Z,14.01
2018-07-19T01:17:59.356Z,14.04
2018-07-19T01:18:59.302Z,13.99
2018-07-19T01:19:59.248Z,14.06
2018-07-19T01:20:59.196Z,14.04
2018-07-19T01:21:59.165Z,14.10
2018-07-19T01:22:59.092Z,14.10
2018-07-19T01:23:59.039Z,14.12
2018-07-19T01:24:58.986Z,14.10
2018-07-19T01:25:58.933Z,14.17
2018-07-19T01:26:58.881Z,14.07
2018-07-19T01:27:58.828Z,14.07
2018-07-19T01:28:58.775Z,14.10
2018-07-19T01:29:58.722Z,14.07
2018-07-19T01:30:58.670Z,14.14
2018-07-19T01:31:58.616Z,14.10
2018-07-19T01:32:58.565Z,14.10
2018-07-19T01:33:58.560Z,14.09
2018-07-19T01:34:58.460Z,14.07
2018-07-19T01:35:58.407Z,14.10
2018-07-19T01:36:58.353Z,14.10
2018-07-19T01:37:58.301Z,14.10
2018-07-19T01:38:58.248Z,14.09
2018-07-19T01:39:58.198Z,14.13
2018-07-19T01:40:58.143Z,14.04
2018-07-19T01:41:58.089Z,13.99
2018-07-19T01:42:58.037Z,14.02
2018-07-19T01:43:57.985Z,14.07
2018-07-19T01:44:57.932Z,14.06
2018-07-19T01:45:57.883Z,14.01
2018-07-19T01:46:57.840Z,13.95
2018-07-19T01:47:57.775Z,14.01
2018-07-19T01:48:57.721Z,14.10
2018-07-19T01:49:57.670Z,14.13
2018-07-19T01:50:57.617Z,14.12
2018-07-19T01:51:57.565Z,14.20
2018-07-19T01:52:57.512Z,14.16
2018-07-19T01:53:57.459Z,14.13
2018-07-19T01:54:57.408Z,13.98
2018-07-19T01:55:57.353Z,13.81
2018-07-19T01:56:57.303Z,13.74
2018-07-19T01:57:57.253Z,13.54
2018-07-19T01:58:57.194Z,13.49
2018-07-19T01:59:57.182Z,13.40
2018-07-19T02:00:57.089Z,13.37
2018-07-19T02:01:57.037Z,13.38
2018-07-19T02:02:56.983Z,13.38
2018-07-19T02:03:56.933Z,13.38
2018-07-19T02:04:56.877Z,13.40
2018-07-19T02:05:56.826Z,13.46
2018-07-19T02:06:56.770Z,13.44
2018-07-19T02:07:56.718Z,13.47
2018-07-19T02:08:56.670Z,13.43
2018-07-19T02:09:56.614Z,13.33
2018-07-19T02:10:56.559Z,13.40
2018-07-19T02:11:56.506Z,13.47
2018-07-19T02:12:56.503Z,13.49
2018-07-19T02:13:56.401Z,13.49
2018-07-19T02:14:56.352Z,13.56
2018-07-19T02:15:56.294Z,13.62
2018-07-19T02:16:56.241Z,13.55
2018-07-19T02:17:56.189Z,13.59
2018-07-19T02:18:56.136Z,13.62
2018-07-19T02:19:56.090Z,13.71
2018-07-19T02:20:56.030Z,13.65
2018-07-19T02:21:55.982Z,13.71
2018-07-19T02:22:55.959Z,13.74
2018-07-19T02:23:55.870Z,13.81
2018-07-19T02:24:55.818Z,13.79
2018-07-19T02:25:55.766Z,13.59
2018-07-19T02:26:55.716Z,13.47
2018-07-19T02:27:55.659Z,13.33
2018-07-19T02:28:55.607Z,13.36
2018-07-19T02:29:55.554Z,13.21
2018-07-19T02:30:55.498Z,13.11
2018-07-19T02:31:55.449Z,13.11
2018-07-19T02:32:55.395Z,13.02
2018-07-19T02:33:55.340Z,13.02
2018-07-19T02:34:55.287Z,13.15
2018-07-19T02:35:55.235Z,13.17
2018-07-19T02:36:55.179Z,13.17
2018-07-19T02:37:55.127Z,13.24
2018-07-19T02:38:55.074Z,13.22
2018-07-19T02:39:55.020Z,13.25
2018-07-19T02:40:54.967Z,13.37
2018-07-19T02:41:54.915Z,13.37
2018-07-19T02:42:54.862Z,13.37
2018-07-19T02:43:54.939Z,13.33
2018-07-19T02:44:54.757Z,13.36
2018-07-19T02:45:54.703Z,13.38
2018-07-19T02:46:54.647Z,13.32
2018-07-19T02:47:54.595Z,13.14
2018-07-19T02:48:54.543Z,13.03
2018-07-19T02:49:54.489Z,13.00
2018-07-19T02:50:54.435Z,13.04
2018-07-19T02:51:54.382Z,12.96
2018-07-19T02:52:54.328Z,13.02
2018-07-19T02:53:54.275Z,13.06
2018-07-19T02:54:54.223Z,13.03
2018-07-19T02:55:54.168Z,12.96
2018-07-19T02:56:54.116Z,12.97
2018-07-19T02:57:54.155Z,12.97
2018-07-19T02:58:54.008Z,12.92
2018-07-19T02:59:53.955Z,12.87
2018-07-19T03:00:53.902Z,12.99
2018-07-19T03:01:53.850Z,13.02
2018-07-19T03:02:53.795Z,12.96
2018-07-19T03:03:53.740Z,12.99
2018-07-19T03:04:53.687Z,12.97
2018-07-19T03:05:53.634Z,13.02
2018-07-19T03:06:53.582Z,13.12
2018-07-19T03:07:53.528Z,13.06
2018-07-19T03:08:53.479Z,13.17
2018-07-19T03:09:53.422Z,13.03
2018-07-19T03:10:53.367Z,13.04
2018-07-19T03:11:53.361Z,13.17
2018-07-19T03:12:53.264Z,13.18
2018-07-19T03:13:53.206Z,13.15
2018-07-19T03:14:53.153Z,13.21
2018-07-19T03:15:53.100Z,13.21
2018-07-19T03:16:53.046Z,13.21
2018-07-19T03:17:52.994Z,13.22
2018-07-19T03:18:52.940Z,13.27
2018-07-19T03:19:52.887Z,13.22
2018-07-19T03:20:52.833Z,13.21
2018-07-19T03:21:52.781Z,13.20
2018-07-19T03:22:52.726Z,13.17
2018-07-19T03:23:52.674Z,13.24
2018-07-19T03:24:52.620Z,13.12
2018-07-19T03:25:52.570Z,13.12
2018-07-19T03:26:52.513Z,13.15
2018-07-19T03:27:52.460Z,13.22
2018-07-19T03:28:52.410Z,13.22
2018-07-19T03:29:52.356Z,13.17
2018-07-19T03:30:52.356Z,13.20
2018-07-19T03:31:52.248Z,13.18
2018-07-19T03:32:52.196Z,13.17
2018-07-19T03:33:52.142Z,13.04
2018-07-19T03:34:52.086Z,13.14
2018-07-19T03:35:52.035Z,13.12
2018-07-19T03:36:51.984Z,13.07
2018-07-19T03:37:51.928Z,13.06
2018-07-19T03:38:51.876Z,12.99
2018-07-19T03:39:51.821Z,12.95
2018-07-19T03:40:51.767Z,12.85
2018-07-19T03:41:51.714Z,12.82
2018-07-19T03:42:51.660Z,12.84
2018-07-19T03:43:51.607Z,12.84
2018-07-19T03:44:51.553Z,12.78
2018-07-19T03:45:51.500Z,12.77
2018-07-19T03:46:51.448Z,12.67
2018-07-19T03:47:51.396Z,12.59
2018-07-19T03:48:51.338Z,12.63
2018-07-19T03:49:51.285Z,12.64
2018-07-19T03:50:51.231Z,12.62
2018-07-19T03:51:51.180Z,12.59
2018-07-19T03:52:51.124Z,12.45
2018-07-19T03:53:51.073Z,12.48
2018-07-19T03:54:51.017Z,12.51
2018-07-19T03:55:51.078Z,12.44
2018-07-19T03:56:50.911Z,12.45
2018-07-19T03:57:50.859Z,12.45
2018-07-19T03:58:50.805Z,12.46
2018-07-19T03:59:50.749Z,12.45
2018-07-19T04:00:50.700Z,12.59
2018-07-19T04:01:50.673Z,12.54
2018-07-19T04:02:50.590Z,12.49
2018-07-19T04:03:50.535Z,12.48
2018-07-19T04:04:50.480Z,12.59
2018-07-19T04:05:50.431Z,12.56
2018-07-19T04:06:50.372Z,12.56
2018-07-19T04:07:50.318Z,12.42
2018-07-19T04:08:50.264Z,12.46
2018-07-19T04:09:50.219Z,12.44
2018-07-19T04:10:50.156Z,12.45
2018-07-19T04:11:50.105Z,12.57
2018-07-19T04:12:50.051Z,12.57
2018-07-19T04:13:49.997Z,12.49
2018-07-19T04:14:49.942Z,12.46
2018-07-19T04:15:49.888Z,12.42
2018-07-19T04:16:49.833Z,12.42
2018-07-19T04:17:49.781Z,12.64
2018-07-19T04:18:49.728Z,12.56
2018-07-19T04:19:49.673Z,12.57
2018-07-19T04:20:49.617Z,12.62
2018-07-19T04:21:49.568Z,12.75
2018-07-19T04:22:49.512Z,12.70
2018-07-19T04:23:49.456Z,12.71
2018-07-19T04:24:49.402Z,12.74
2018-07-19T04:25:49.351Z,12.69
2018-07-19T04:26:49.297Z,12.82
2018-07-19T04:27:49.248Z,12.85
2018-07-19T04:28:49.191Z,12.93
2018-07-19T04:29:49.136Z,12.95
2018-07-19T04:30:49.082Z,12.95
2018-07-19T04:31:49.026Z,13.04
2018-07-19T04:32:48.975Z,12.88
2018-07-19T04:33:48.923Z,13.00
2018-07-19T04:34:48.869Z,13.09
2018-07-19T04:35:48.811Z,12.97
2018-07-19T04:36:48.758Z,13.14
2018-07-19T04:37:48.707Z,13.07
2018-07-19T04:38:48.651Z,13.04
2018-07-19T04:39:48.598Z,13.12
2018-07-19T04:40:48.544Z,13.17
2018-07-19T04:41:48.491Z,13.06
2018-07-19T04:42:48.434Z,13.09
2018-07-19T04:43:48.381Z,13.04
2018-07-19T04:44:48.330Z,13.09
2018-07-19T04:45:48.277Z,13.17
2018-07-19T04:46:48.221Z,13.14
2018-07-19T04:47:48.169Z,13.12
2018-07-19T04:48:48.115Z,13.22
2018-07-19T04:49:48.059Z,13.22
2018-07-19T04:50:48.006Z,13.27
2018-07-19T04:51:47.954Z,13.32
2018-07-19T04:52:47.899Z,13.30
2018-07-19T04:53:47.846Z,13.29
2018-07-19T04:54:47.792Z,13.43
2018-07-19T04:55:47.738Z,13.36
2018-07-19T04:56:47.685Z,13.32
2018-07-19T04:57:47.633Z,13.43
2018-07-19T04:58:47.577Z,13.47
2018-07-19T04:59:47.524Z,13.51
2018-07-19T05:00:47.471Z,13.59
2018-07-19T05:01:47.432Z,13.55
2018-07-19T05:02:47.363Z,13.59
2018-07-19T05:03:47.313Z,13.59
2018-07-19T05:04:47.256Z,13.59
2018-07-19T05:05:47.204Z,13.74
2018-07-19T05:06:47.148Z,13.79
2018-07-19T05:07:47.095Z,13.81
2018-07-19T05:08:47.044Z,13.81
2018-07-19T05:09:46.990Z,13.84
2018-07-19T05:10:46.935Z,13.89
2018-07-19T05:11:46.884Z,13.99
2018-07-19T05:12:46.829Z,14.10
2018-07-19T05:13:46.777Z,14.12
2018-07-19T05:14:46.723Z,14.20
2018-07-19T05:15:46.670Z,14.27
2018-07-19T05:16:46.621Z,14.29
2018-07-19T05:17:46.564Z,14.34
2018-07-19T05:18:46.509Z,14.34
2018-07-19T05:19:46.458Z,14.49
2018-07-19T05:20:46.407Z,14.57
2018-07-19T05:21:46.352Z,14.68
2018-07-19T05:22:46.297Z,14.65
2018-07-19T05:23:46.246Z,14.65
2018-07-19T05:24:46.193Z,14.75
2018-07-19T05:25:46.145Z,14.87
2018-07-19T05:26:46.089Z,14.95
2018-07-19T05:27:46.036Z,14.95
2018-07-19T05:28:45.987Z,14.98
2018-07-19T05:29:45.934Z,15.15
2018-07-19T05:30:45.876Z,15.20
2018-07-19T05:31:45.826Z,15.24
2018-07-19T05:32:45.774Z,15.27
2018-07-19T05:33:45.721Z,15.36
2018-07-19T05:34:45.668Z,15.35
2018-07-19T05:35:45.614Z,15.41
2018-07-19T05:36:45.562Z,15.49
2018-07-19T05:37:45.510Z,15.46
2018-07-19T05:38:45.457Z,15.63
2018-07-19T05:39:45.405Z,15.57
2018-07-19T05:40:45.353Z,15.61
2018-07-19T05:41:45.301Z,15.64
2018-07-19T05:42:45.247Z,15.74
2018-07-19T05:43:45.197Z,15.76
2018-07-19T05:44:45.145Z,15.86
2018-07-19T05:45:45.093Z,15.96
2018-07-19T05:46:45.040Z,16.00
2018-07-19T05:47:44.991Z,16.06
2018-07-19T05:48:44.935Z,16.11
2018-07-19T05:49:44.885Z,16.16
2018-07-19T05:50:44.835Z,16.23
2018-07-19T05:51:44.780Z,16.33
2018-07-19T05:52:44.727Z,16.37
2018-07-19T05:53:44.677Z,16.44
2018-07-19T05:54:44.625Z,16.45
2018-07-19T05:55:44.573Z,16.60
2018-07-19T05:56:44.522Z,16.63
2018-07-19T05:57:44.469Z,16.67
2018-07-19T05:58:44.419Z,16.75
2018-07-19T05:59:44.370Z,16.88
2018-07-19T06:00:44.315Z,16.86
2018-07-19T06:01:44.264Z,16.88
2018-07-19T06:02:44.211Z,16.92
2018-07-19T06:03:44.159Z,17.00
2018-07-19T06:04:44.109Z,17.06
2018-07-19T06:05:44.098Z,17.17
2018-07-19T06:06:44.007Z,17.23
2018-07-19T06:07:43.956Z,17.38
2018-07-19T06:08:43.904Z,17.40
2018-07-19T06:09:43.890Z,17.43
2018-07-19T06:10:43.800Z,17.50
2018-07-19T06:11:43.750Z,17.55
2018-07-19T06:12:43.699Z,17.69
2018-07-19T06:13:43.648Z,17.81
2018-07-19T06:14:43.598Z,17.84
2018-07-19T06:15:43.547Z,17.82
2018-07-19T06:16:43.496Z,17.87
2018-07-19T06:17:43.451Z,17.84
2018-07-19T06:18:43.476Z,17.91
2018-07-19T06:19:43.341Z,18.06
2018-07-19T06:20:43.292Z,18.09
2018-07-19T06:21:43.240Z,18.24
2018-07-19T06:22:43.193Z,18.24
2018-07-19T06:23:43.140Z,18.27
2018-07-19T06:24:43.089Z,18.39
2018-07-19T06:25:43.044Z,18.34
2018-07-19T06:26:42.987Z,18.44
2018-07-19T06:27:42.936Z,18.47
2018-07-19T06:28:42.887Z,18.59
2018-07-19T06:29:42.836Z,18.57
2018-07-19T06:30:42.785Z,18.64
2018-07-19T06:31:42.738Z,18.72
2018-07-19T06:32:42.687Z,18.73
2018-07-19T06:33:42.634Z,18.87
2018-07-19T06:34:42.584Z,18.97
2018-07-19T06:35:42.533Z,18.97
2018-07-19T06:36:42.484Z,18.99
2018-07-19T06:37:42.437Z,18.97
2018-07-19T06:38:42.382Z,19.18
2018-07-19T06:39:42.332Z,19.25
2018-07-19T06:40:42.283Z,19.25
2018-07-19T06:41:42.234Z,19.31
2018-07-19T06:42:42.182Z,19.36
2018-07-19T06:43:42.136Z,19.51
2018-07-19T06:44:42.084Z,19.54
2018-07-19T06:45:42.034Z,19.68
2018-07-19T06:46:41.983Z,19.72
2018-07-19T06:47:41.933Z,19.75
2018-07-19T06:48:41.883Z,19.88
2018-07-19T06:49:41.834Z,19.93
2018-07-19T06:50:41.784Z,20.00
2018-07-19T06:51:41.733Z,20.02
2018-07-19T06:52:41.685Z,20.02
2018-07-19T06:53:41.634Z,20.15
2018-07-19T06:54:41.585Z,20.12
2018-07-19T06:55:41.538Z,20.15
2018-07-19T06:56:41.486Z,20.28
2018-07-19T06:57:41.441Z,20.31
2018-07-19T06:58:41.388Z,20.38
2018-07-19T06:59:41.338Z,20.49
2018-07-19T07:00:41.289Z,20.61
2018-07-19T07:01:41.242Z,20.66
2018-07-19T07:02:41.190Z,20.72
2018-07-19T07:03:41.198Z,20.69
2018-07-19T07:04:41.093Z,20.81
2018-07-19T07:05:41.044Z,20.84
2018-07-19T07:06:40.996Z,20.95
2018-07-19T07:07:40.948Z,20.93
2018-07-19T07:08:40.896Z,21.08
2018-07-19T07:09:40.852Z,21.06
2018-07-19T07:10:40.798Z,21.05
2018-07-19T07:11:40.749Z,21.13
2018-07-19T07:12:40.701Z,21.17
2018-07-19T07:13:40.656Z,21.23
2018-07-19T07:14:40.606Z,21.35
2018-07-19T07:15:40.555Z,21.46
2018-07-19T07:16:40.507Z,21.44
2018-07-19T07:17:40.461Z,21.51
2018-07-19T07:18:40.412Z,21.57
2018-07-19T07:19:40.362Z,21.61
2018-07-19T07:20:40.313Z,21.72
2018-07-19T07:21:40.266Z,21.64
2018-07-19T07:22:40.217Z,21.72
2018-07-19T07:23:40.167Z,21.61
2018-07-19T07:24:40.122Z,21.74
2018-07-19T07:25:40.071Z,21.81
2018-07-19T07:26:40.023Z,21.85
2018-07-19T07:27:39.976Z,21.95
2018-07-19T07:28:39.929Z,22.01
2018-07-19T07:29:39.879Z,22.22
2018-07-19T07:30:39.831Z,22.22
2018-07-19T07:31:39.782Z,22.31
2018-07-19T07:32:39.735Z,22.39
2018-07-19T07:33:39.687Z,22.47
2018-07-19T07:34:39.639Z,22.47
2018-07-19T07:35:39.704Z,22.60
2018-07-19T07:36:39.547Z,22.69
2018-07-19T07:37:39.495Z,22.74
2018-07-19T07:38:39.449Z,22.87
2018-07-19T07:39:39.400Z,22.93
2018-07-19T07:40:39.352Z,23.04
2018-07-19T07:41:39.305Z,23.09
2018-07-19T07:42:39.257Z,23.24
2018-07-19T07:43:39.209Z,23.38
2018-07-19T07:44:39.167Z,23.40
2018-07-19T07:45:39.114Z,23.42
2018-07-19T07:46:39.067Z,23.52
2018-07-19T07:47:39.021Z,23.53
2018-07-19T07:48:38.976Z,23.57
2018-07-19T07:49:38.927Z,23.64
2018-07-19T07:50:38.878Z,23.61
2018-07-19T07:51:38.831Z,23.64
2018-07-19T07:52:38.784Z,23.58
2018-07-19T07:53:38.738Z,23.60
2018-07-19T07:54:38.689Z,23.67
2018-07-19T07:55:38.646Z,23.87
2018-07-19T07:56:38.597Z,23.86
2018-07-19T07:57:38.553Z,23.87
2018-07-19T07:58:38.502Z,23.95
2018-07-19T07:59:38.456Z,24.02
2018-07-19T08:00:38.411Z,24.13
2018-07-19T08:01:38.362Z,24.27
2018-07-19T08:02:38.318Z,24.38
2018-07-19T08:03:38.268Z,24.45
2018-07-19T08:04:38.223Z,24.50
2018-07-19T08:05:38.180Z,24.49
2018-07-19T08:06:38.128Z,24.67
2018-07-19T08:07:38.082Z,24.59
2018-07-19T08:08:38.037Z,24.57
2018-07-19T08:09:37.993Z,24.56
2018-07-19T08:10:37.944Z,24.60
2018-07-19T08:11:37.897Z,24.75
2018-07-19T08:12:37.852Z,24.73
2018-07-19T08:13:37.804Z,24.75
2018-07-19T08:14:37.759Z,24.71
2018-07-19T08:15:37.896Z,24.73
2018-07-19T08:16:37.670Z,24.73
2018-07-19T08:17:37.621Z,24.63
2018-07-19T08:18:37.574Z,24.61
2018-07-19T08:19:37.528Z,24.61
2018-07-19T08:20:37.485Z,24.68
2018-07-19T08:21:37.441Z,24.76
2018-07-19T08:22:37.391Z,24.88
2018-07-19T08:23:37.345Z,24.97
2018-07-19T08:24:37.297Z,25.10
2018-07-19T08:25:37.252Z,25.19
2018-07-19T08:26:37.205Z,25.28
2018-07-19T08:27:37.160Z,25.49
2018-07-19T08:28:37.114Z,25.62
2018-07-19T08:29:37.074Z,25.75
2018-07-19T08:30:37.023Z,25.68
2018-07-19T08:31:36.978Z,25.56
2018-07-19T08:32:36.932Z,25.53
2018-07-19T08:33:36.888Z,25.59
2018-07-19T08:34:36.841Z,25.59
2018-07-19T08:35:36.795Z,25.64
2018-07-19T08:36:36.749Z,25.54
2018-07-19T08:37:36.704Z,25.65
2018-07-19T08:38:36.658Z,25.68
2018-07-19T08:39:36.614Z,25.97
2018-07-19T08:40:36.568Z,25.90
2018-07-19T08:41:36.530Z,25.94
2018-07-19T08:42:36.480Z,25.98
2018-07-19T08:43:36.433Z,25.97
2018-07-19T08:44:36.390Z,26.04
2018-07-19T08:45:36.344Z,26.08
2018-07-19T08:46:36.297Z,26.24
2018-07-19T08:47:36.253Z,26.18
2018-07-19T08:48:36.209Z,26.27
2018-07-19T08:49:36.163Z,26.31
2018-07-19T08:50:36.117Z,26.35
2018-07-19T08:51:36.079Z,26.49
2018-07-19T08:52:36.029Z,26.59
2018-07-19T08:53:35.986Z,26.69
2018-07-19T08:54:35.939Z,26.80
2018-07-19T08:55:35.894Z,26.83
2018-07-19T08:56:35.892Z,26.94
2018-07-19T08:57:35.807Z,27.16
2018-07-19T08:58:35.760Z,27.19
2018-07-19T08:59:35.717Z,27.24
2018-07-19T09:00:35.672Z,27.42
2018-07-19T09:01:35.629Z,27.42
2018-07-19T09:02:35.584Z,27.57
2018-07-19T09:03:35.543Z,27.53
2018-07-19T09:04:35.496Z,27.59
2018-07-19T09:05:35.455Z,27.61
2018-07-19T09:06:35.407Z,27.51
2018-07-19T09:07:35.364Z,27.58
2018-07-19T09:08:35.323Z,27.46
2018-07-19T09:09:35.277Z,27.41
2018-07-19T09:10:35.232Z,27.36
2018-07-19T09:11:35.191Z,27.32
2018-07-19T09:12:35.145Z,27.41
2018-07-19T09:13:35.101Z,27.53
2018-07-19T09:14:35.056Z,27.67
2018-07-19T09:15:35.015Z,27.64
2018-07-19T09:16:34.975Z,27.69
2018-07-19T09:17:34.926Z,27.76
2018-07-19T09:18:34.886Z,27.69
2018-07-19T09:19:34.905Z,27.57
2018-07-19T09:20:34.797Z,27.46
2018-07-19T09:21:34.752Z,27.23
2018-07-19T09:22:34.710Z,27.09
2018-07-19T09:23:34.665Z,26.99
2018-07-19T09:24:34.621Z,27.19
2018-07-19T09:25:34.578Z,27.54
2018-07-19T09:26:34.582Z,27.79
2018-07-19T09:27:34.492Z,27.85
2018-07-19T09:28:34.448Z,27.94
2018-07-19T09:29:34.405Z,27.91
2018-07-19T09:30:34.359Z,28.09
2018-07-19T09:31:34.318Z,28.16
2018-07-19T09:32:34.311Z,28.28
2018-07-19T09:33:34.232Z,28.33
2018-07-19T09:34:34.187Z,28.44
2018-07-19T09:35:34.143Z,28.43
2018-07-19T09:36:34.104Z,28.40
2018-07-19T09:37:34.057Z,28.35
2018-07-19T09:38:34.099Z,28.35
2018-07-19T09:39:33.976Z,28.33
2018-07-19T09:40:33.929Z,28.40
2018-07-19T09:41:33.887Z,28.48
2018-07-19T09:42:33.842Z,28.56
2018-07-19T09:43:33.871Z,28.69
2018-07-19T09:44:33.758Z,28.69
2018-07-19T09:45:33.714Z,28.62
2018-07-19T09:46:33.671Z,28.51
2018-07-19T09:47:33.659Z,28.51
2018-07-19T09:48:33.586Z,28.59
2018-07-19T09:49:33.544Z,28.58
2018-07-19T09:50:33.500Z,28.75
2018-07-19T09:51:33.458Z,28.65
2018-07-19T09:52:33.415Z,28.70
2018-07-19T09:53:33.372Z,28.69
2018-07-19T09:54:33.333Z,28.78
2018-07-19T09:55:33.286Z,28.77
2018-07-19T09:56:33.244Z,28.80
2018-07-19T09:57:33.202Z,28.66
2018-07-19T09:58:33.163Z,28.60
2018-07-19T09:59:33.145Z,28.50
2018-07-19T10:00:33.075Z,28.29
2018-07-19T10:01:33.032Z,28.25
2018-07-19T10:02:32.988Z,28.22
2018-07-19T10:03:32.945Z,28.25
2018-07-19T10:04:32.903Z,28.31
2018-07-19T10:05:32.861Z,28.29
2018-07-19T10:06:32.817Z,28.26
2018-07-19T10:07:32.775Z,28.25
2018-07-19T10:08:32.734Z,28.19
2018-07-19T10:09:32.690Z,28.28
2018-07-19T10:10:32.699Z,28.11
2018-07-19T10:11:32.607Z,27.96
2018-07-19T10:12:32.563Z,27.99
2018-07-19T10:13:32.637Z,28.16
2018-07-19T10:14:39.197Z,28.43
2018-07-19T10:15:32.442Z,28.53
2018-07-19T10:16:32.390Z,28.59
2018-07-19T10:17:32.348Z,28.60
2018-07-19T10:18:32.306Z,28.58
2018-07-19T10:19:32.264Z,28.56
2018-07-19T10:20:32.246Z,28.56
2018-07-19T10:21:32.185Z,28.68
2018-07-19T10:22:32.132Z,28.58
2018-07-19T10:23:32.134Z,28.44
2018-07-19T10:24:32.050Z,28.44
2018-07-19T10:25:32.005Z,28.36
2018-07-19T10:26:31.989Z,28.21
2018-07-19T10:27:31.921Z,28.07
2018-07-19T10:28:31.927Z,28.23
2018-07-19T10:29:31.836Z,28.43
2018-07-19T10:30:31.792Z,28.36
2018-07-19T10:31:31.752Z,28.58
2018-07-19T10:32:31.790Z,28.70
2018-07-19T10:33:31.664Z,28.70
2018-07-19T10:34:31.665Z,28.66
2018-07-19T10:35:31.578Z,28.65
2018-07-19T10:36:31.535Z,28.41
2018-07-19T10:37:31.517Z,28.26
2018-07-19T10:38:31.449Z,28.36
2018-07-19T10:39:31.406Z,28.58
2018-07-19T10:40:31.365Z,28.73
2018-07-19T10:41:31.325Z,28.60
2018-07-19T10:42:31.278Z,28.62
2018-07-19T10:43:31.248Z,28.77
2018-07-19T10:44:31.194Z,28.77
2018-07-19T10:45:31.154Z,28.90
2018-07-19T10:46:31.113Z,28.87
2018-07-19T10:47:31.068Z,28.82
2018-07-19T10:48:31.024Z,28.78
2018-07-19T10:49:30.981Z,28.73
2018-07-19T10:50:30.939Z,28.77
2018-07-19T10:51:30.896Z,28.63
2018-07-19T10:52:30.852Z,28.58
2018-07-19T10:53:30.810Z,28.73
2018-07-19T10:54:30.768Z,28.69
2018-07-19T10:55:30.725Z,28.58
2018-07-19T10:56:30.756Z,28.47
2018-07-19T10:57:30.646Z,28.66
2018-07-19T10:58:30.597Z,28.77
2018-07-19T10:59:30.557Z,28.91
2018-07-19T11:00:30.512Z,29.11
2018-07-19T11:01:30.470Z,29.29
2018-07-19T11:02:30.427Z,29.53
2018-07-19T11:03:30.386Z,29.59
2018-07-19T11:04:30.343Z,29.34
2018-07-19T11:05:30.304Z,29.26
2018-07-19T11:06:30.260Z,29.25
2018-07-19T11:07:30.218Z,29.07
2018-07-19T11:08:30.173Z,29.06
2018-07-19T11:09:30.201Z,29.15
2018-07-19T11:10:30.089Z,29.23
2018-07-19T11:11:30.049Z,29.37
2018-07-19T11:12:30.005Z,29.47
2018-07-19T11:13:29.964Z,29.28
2018-07-19T11:14:29.920Z,29.26
2018-07-19T11:15:29.878Z,29.34
2018-07-19T11:16:29.883Z,29.34
2018-07-19T11:17:29.795Z,29.20
2018-07-19T11:18:29.753Z,29.31
2018-07-19T11:19:29.710Z,29.40
2018-07-19T11:20:29.668Z,29.41
2018-07-19T11:21:29.626Z,29.35
2018-07-19T11:22:29.584Z,29.37
2018-07-19T11:23:29.542Z,29.41
2018-07-19T11:24:29.505Z,29.44
2018-07-19T11:25:29.459Z,29.60
2018-07-19T11:26:29.415Z,29.62
2018-07-19T11:27:29.375Z,29.65
2018-07-19T11:28:29.401Z,29.60
2018-07-19T11:29:29.295Z,29.50
2018-07-19T11:30:29.249Z,29.41
2018-07-19T11:31:29.212Z,29.55
2018-07-19T11:32:29.172Z,29.63
2018-07-19T11:33:29.124Z,29.59
2018-07-19T11:34:29.081Z,29.47
2018-07-19T11:35:29.042Z,29.56
2018-07-19T11:36:29.000Z,29.49
2018-07-19T11:37:28.959Z,29.56
2018-07-19T11:38:28.915Z,29.55
2018-07-19T11:39:28.894Z,29.35
2018-07-19T11:40:28.832Z,29.13
2018-07-19T11:41:28.838Z,29.19
2018-07-19T11:42:28.747Z,29.31
2018-07-19T11:43:28.709Z,29.37
2018-07-19T11:44:28.665Z,29.50
2018-07-19T11:45:28.635Z,29.60
2018-07-19T11:46:28.582Z,29.56
2018-07-19T11:47:28.539Z,29.71
2018-07-19T11:48:28.498Z,29.70
2018-07-19T11:49:28.456Z,29.89
2018-07-19T11:50:28.416Z,29.72
2018-07-19T11:51:28.375Z,29.43
2018-07-19T11:52:28.331Z,29.34
2018-07-19T11:53:28.290Z,29.43
2018-07-19T11:54:28.245Z,29.66
2018-07-19T11:55:28.234Z,29.38
2018-07-19T11:56:28.166Z,29.38
2018-07-19T11:57:28.123Z,29.44
2018-07-19T11:58:28.079Z,29.60
